x

Ilm3 - 27 Miles Se Of Wrightsville Beach, Nc (41037) Weather Station

11:08 - Mon 20th Feb 2017 All times are EST. -5 hours from GMT.

  • Wind
    13mph, 20mph gusts
  • Sea Temp 61°f
  • Aire Temp 61°f
  • Sea Pressure 1022.1mb
  • Ilm3 - 27 Miles Se Of Wrightsville Beach, Nc
  • Ilm3 - 27 Miles Se Of Wrightsville Beach, Nc

More Historic Weather Station data

Upgrade to MSW Pro to gain access to the past 30 days of data for over 8000 Wavebouys and Weather Stations around the globe.

Join Pro

Comparision Forecast

View Surf forecast
   
lun 02/20 11:08 13 20 mph 1022.1mb 61f 61f
10:08 16 20 mph 1022.1mb 61f 59f
9:08 16 20 mph 1021.3mb 61f 59f
8:08 16 22 mph 1020.3mb 61f 59f
7:08 16 22 mph 1019.5mb 61f 58f
6:08 13 18 mph 1019.3mb 61f 58f
5:08 13 18 mph 1018.8mb 61f 58f
4:08 11 13 mph 1018mb 61f 58f
3:08 9 13 mph 1017.2mb 61f 59f
2:08 7 11 mph 1016.7mb 61f 59f
1:08 7 11 mph 1016.7mb 60f 60f
dom 02/19 11:08 7 11 mph 1016.8mb 59f 60f
10:08 7 9 mph 1016.4mb 59f 60f
9:08 4 9 mph 1016.1mb 59f 60f
8:08 4 7 mph 1015.4mb 59f 59f
7:08 4 7 mph 1014.9mb 59f 59f
6:08 7 9 mph 1014.5mb 59f 59f
5:08 9 13 mph 1013.5mb 60f 60f
4:08 9 13 mph 1012.9mb 61f 60f
3:08 13 16 mph 1012.6mb 61f 60f
2:08 7 11 mph 1013.3mb 61f 60f
1:08 7 9 mph 1013.1mb 61f 59f
12:08 11 16 mph 1014.1mb 61f 58f
11:08 16 22 mph 1014.4mb 61f 57f
10:08 18 25 mph 1014.4mb 60f 57f
9:08 20 27 mph 1014mb 60f 58f
8:08 9 13 mph 1013.8mb 60f 58f
7:08 7 11 mph 1013.5mb 60f 58f
6:08 11 16 mph 1012.7mb 61f 58f
5:08 11 13 mph 1011.4mb 61f 58f
4:08 9 13 mph 1012mb 62f 59f
3:08 11 13 mph 1011.8mb 62f 59f
2:08 11 16 mph 1012mb 63f 61f
12:08 13 18 mph 1013.2mb 62f 63f
sáb 02/18 11:08 11 16 mph 1013.7mb 62f 62f
10:08 11 16 mph 1013.4mb 61f 62f
9:08 9 13 mph 1013.2mb 61f 62f
8:08 11 16 mph 1013.4mb 61f 62f
7:08 13 18 mph 1014.3mb 60f 62f
6:08 13 16 mph 1013.9mb 60f 61f
5:08 11 16 mph 1013.9mb 61f 61f
4:08 13 18 mph 1014.1mb 61f 61f
3:08 13 18 mph 1014.3mb 61f 62f
2:08 13 20 mph 1014.2mb 61f 62f
1:08 16 22 mph 1014.2mb 61f 61f
12:08 16 22 mph 1014.7mb 61f 61f
11:08 18 25 mph 1015.9mb 61f 60f
10:08 13 20 mph 1016.1mb 61f 60f
9:08 16 22 mph 1016mb 61f 60f
8:08 11 18 mph 1015.3mb 61f 60f
7:08 16 22 mph 1015.4mb 61f 59f
6:08 16 20 mph 1014.8mb 61f 59f
5:08 16 22 mph 1014.4mb 61f 59f
4:08 16 22 mph 1014mb 61f 59f
3:08 16 22 mph 1014mb 61f 60f
2:08 18 25 mph 1013.6mb 61f 60f
1:08 20 27 mph 1013.8mb 61f 59f
12:08 18 25 mph 1014.6mb 62f 60f
vie 02/17 11:08 16 22 mph 1014.2mb 61f 60f
10:08 11 16 mph 1014.5mb 61f 59f
9:08 11 13 mph 1014.5mb 61f 59f
8:08 11 16 mph 1014.6mb 61f 59f
7:08 16 22 mph 1014.4mb 61f 58f
6:08 16 22 mph 1014mb 62f 58f
5:08 16 20 mph 1013.4mb 62f 59f
4:08 9 16 mph 1013.3mb 62f 60f
3:08 9 13 mph 1014.1mb 63f 59f
2:08 11 13 mph 1015.5mb 62f 58f
1:08 7 11 mph 1015.9mb 62f 56f
12:08 7 11 mph 1016.8mb 62f 55f
11:08 4 9 mph 1017.6mb 62f 54f
10:08 2 7 mph 1017.5mb 62f 54f
9:08 7 13 mph 1017.5mb 61f 53f
8:08 7 11 mph 1016.6mb 61f 52f
7:08 7 11 mph 1016.2mb 60f 51f
6:08 9 16 mph 1016mb 61f 51f
5:08 9 13 mph 1015.3mb 61f 51f
4:08 11 16 mph 1014.9mb 61f 52f
3:08 11 18 mph 1014.8mb 61f 52f
2:08 13 20 mph 1014.9mb 61f 52f
1:08 18 27 mph 1014mb 62f 53f
12:08 22 29 mph 1013.6mb 62f 54f
jue 02/16 11:08 18 27 mph 1014mb 62f 55f
10:08 18 25 mph 1013.4mb 62f 55f
9:08 16 22 mph 1013mb 61f 55f
8:08 16 25 mph 1012.8mb 61f 55f
7:08 18 27 mph 1012.4mb 61f 56f
6:08 22 31 mph 1011.6mb 61f 56f